Time;durP1;ratioP1;P1;durP2;ratioP2;P2;SDS_P1;SDS_P2;PMS_P1;PMS_P2;Temp;Humidity;BMP_temperature;BMP_pressure;BME280_temperature;BME280_humidity;BME280_pressure;Samples;Min_cycle;Max_cycle;Signal;HPM_P1;HPM_P2
2022/10/31 00:03:17;;;;;;;;;;;15.00;99.90;;;;;;12528918;28;19925;-85
2022/10/31 00:09:19;;;;;;;;;;;15.00;99.90;;;;;;12528954;28;19947;-85
2022/10/31 00:15:21;;;;;;;;;;;15.00;99.90;;;;;;12536459;28;20302;-85
2022/10/31 00:21:23;;;;;;;;;;;15.00;99.90;;;;;;12526446;28;19925;-85
2022/10/31 00:27:25;;;;;;;;;;;14.90;99.90;;;;;;12527882;28;19989;-85
2022/10/31 00:33:26;;;;;;;;;;;14.80;99.90;;;;;;12524338;28;19929;-85
2022/10/31 00:39:28;;;;;;;;;;;14.80;99.90;;;;;;12532961;28;19929;-85
2022/10/31 00:45:30;;;;;;;;;;;14.80;99.90;;;;;;12532040;28;19925;-85
2022/10/31 00:51:31;;;;;;;;;;;14.70;99.90;;;;;;12513983;28;19925;-85
2022/10/31 00:57:33;;;;;;;;;;;14.70;99.90;;;;;;12519745;28;19925;-85
2022/10/31 01:03:35;;;;;;;;;;;14.70;99.90;;;;;;12515344;28;19932;-85
2022/10/31 01:09:36;;;;;;;;;;;14.60;99.90;;;;;;12513849;28;19933;-85
2022/10/31 01:15:38;;;;;;;;;;;14.60;99.90;;;;;;12514713;28;19925;-85
2022/10/31 01:21:40;;;;;;;;;;;14.60;99.90;;;;;;12503524;28;20034;-85
2022/10/31 01:27:42;;;;;;;;;;;14.60;99.90;;;;;;12521636;28;19924;-85
2022/10/31 01:33:44;;;;;;;;;;;14.60;99.90;;;;;;12501696;28;19940;-85
2022/10/31 01:39:47;;;;;;;;;;;14.60;99.90;;;;;;12510623;28;19929;-85
2022/10/31 01:45:52;;;;;;;;;;;14.40;99.90;;;;;;12524511;28;19925;-85
2022/10/31 01:51:58;;;;;;;;;;;14.40;99.90;;;;;;12534589;28;19925;-85
2022/10/31 01:58:04;;;;;;;;;;;14.20;99.90;;;;;;12529184;28;20303;-85
2022/10/31 02:04:06;;;;;;;;;;;14.20;99.90;;;;;;12540687;28;20391;-85
2022/10/31 02:10:08;;;;;;;;;;;14.10;99.90;;;;;;12536371;28;19929;-85
2022/10/31 02:16:10;;;;;;;;;;;14.00;99.90;;;;;;12538019;28;19936;-85
2022/10/31 02:22:19;;;;;;;;;;;14.00;99.90;;;;;;12533952;28;19928;-85
2022/10/31 02:28:33;;;;;;;;;;;14.00;99.90;;;;;;12532035;28;19931;-85
2022/10/31 02:34:48;;;;;;;;;;;13.90;99.90;;;;;;12536878;28;19924;-85
2022/10/31 02:40:59;;;;;;;;;;;13.90;99.90;;;;;;12535880;28;19928;-85
2022/10/31 02:47:03;;;;;;;;;;;13.80;99.90;;;;;;12528536;28;19932;-85
2022/10/31 02:53:05;;;;;;;;;;;13.80;99.90;;;;;;12519392;28;20443;-85
2022/10/31 02:59:07;;;;;;;;;;;13.70;99.90;;;;;;12509522;28;19929;-85
2022/10/31 03:05:14;;;;;;;;;;;13.70;99.90;;;;;;12503123;28;19929;-85
2022/10/31 03:11:17;;;;;;;;;;;13.70;99.90;;;;;;12504274;28;19925;-85
2022/10/31 03:17:23;;;;;;;;;;;13.50;99.90;;;;;;12513192;28;19929;-85
2022/10/31 03:23:25;;;;;;;;;;;13.50;99.90;;;;;;12514068;28;19925;-85
2022/10/31 03:29:29;;;;;;;;;;;13.50;99.90;;;;;;12511062;28;20321;-85
2022/10/31 03:35:32;;;;;;;;;;;13.50;99.90;;;;;;12505265;28;19932;-85
2022/10/31 03:41:35;;;;;;;;;;;13.50;99.90;;;;;;12506475;28;19932;-85
2022/10/31 03:47:37;;;;;;;;;;;13.50;99.90;;;;;;12513932;28;19935;-84
2022/10/31 03:54:04;;;;;;;;;;;13.50;99.90;;;;;;12527548;28;19944;-85
2022/10/31 04:00:07;;;;;;;;;;;13.60;99.90;;;;;;12539933;28;19928;-85
2022/10/31 04:06:11;;;;;;;;;;;13.60;99.90;;;;;;12525213;28;19931;-85
2022/10/31 04:12:16;;;;;;;;;;;13.50;99.90;;;;;;12528223;28;19924;-85
2022/10/31 04:18:18;;;;;;;;;;;13.30;99.90;;;;;;12532077;28;19933;-85
2022/10/31 04:24:20;;;;;;;;;;;13.40;99.90;;;;;;12543779;28;19925;-85
2022/10/31 04:30:22;;;;;;;;;;;13.30;99.90;;;;;;12539899;28;19963;-85
2022/10/31 04:36:23;;;;;;;;;;;13.30;99.90;;;;;;12542740;28;19929;-85
2022/10/31 04:42:28;;;;;;;;;;;13.60;99.90;;;;;;12540616;28;20026;-85
2022/10/31 04:48:30;;;;;;;;;;;13.60;99.90;;;;;;12521172;28;19925;-85
2022/10/31 04:54:31;;;;;;;;;;;13.50;99.90;;;;;;12517444;28;19929;-85
2022/10/31 05:00:33;;;;;;;;;;;13.30;99.90;;;;;;12528575;28;19947;-85
2022/10/31 05:06:35;;;;;;;;;;;13.50;99.90;;;;;;12522400;28;19928;-85
2022/10/31 05:12:36;;;;;;;;;;;13.30;99.90;;;;;;12516035;28;20046;-85
2022/10/31 05:18:38;;;;;;;;;;;13.30;99.90;;;;;;12525689;28;19940;-85
2022/10/31 05:24:40;;;;;;;;;;;13.40;99.90;;;;;;12564154;28;19965;-85
2022/10/31 05:30:41;;;;;;;;;;;13.20;99.90;;;;;;12553559;28;19912;-85
2022/10/31 05:36:43;;;;;;;;;;;12.90;99.90;;;;;;12570958;28;20001;-85
2022/10/31 05:42:45;;;;;;;;;;;12.90;99.90;;;;;;12560703;28;19951;-85
2022/10/31 05:48:47;;;;;;;;;;;13.10;99.90;;;;;;12559021;28;19924;-85
2022/10/31 05:54:48;;;;;;;;;;;13.00;99.90;;;;;;12544544;28;19928;-85
2022/10/31 06:00:50;;;;;;;;;;;12.90;99.90;;;;;;12536429;28;19935;-85
2022/10/31 06:06:52;;;;;;;;;;;12.90;99.90;;;;;;12531255;28;19964;-85
2022/10/31 06:12:54;;;;;;;;;;;12.90;99.90;;;;;;12529945;28;19973;-85
2022/10/31 06:18:55;;;;;;;;;;;12.80;99.90;;;;;;12538611;28;19940;-85
2022/10/31 06:24:57;;;;;;;;;;;12.30;99.90;;;;;;12539378;28;19928;-85
2022/10/31 06:30:59;;;;;;;;;;;12.10;99.90;;;;;;12530584;28;19929;-85
2022/10/31 06:37:00;;;;;;;;;;;12.00;99.90;;;;;;12538008;28;19932;-85
2022/10/31 06:43:02;;;;;;;;;;;12.30;99.90;;;;;;12530106;28;20292;-85
2022/10/31 06:49:04;;;;;;;;;;;12.20;99.90;;;;;;12514758;28;19925;-85
2022/10/31 06:55:06;;;;;;;;;;;12.20;99.90;;;;;;12512638;28;20380;-85
2022/10/31 07:01:07;;;;;;;;;;;12.30;99.90;;;;;;12505386;28;19924;-85
2022/10/31 07:07:09;;;;;;;;;;;12.40;99.90;;;;;;12512442;28;20047;-86
2022/10/31 07:13:12;;;;;;;;;;;12.40;99.90;;;;;;12514244;28;19925;-86
2022/10/31 07:19:14;;;;;;;;;;;12.70;99.90;;;;;;12511194;28;20236;-86
2022/10/31 07:25:16;;;;;;;;;;;12.70;99.90;;;;;;12508407;28;19925;-86
2022/10/31 07:31:17;;;;;;;;;;;12.90;99.90;;;;;;12506836;28;19932;-86
2022/10/31 07:37:19;;;;;;;;;;;13.00;99.90;;;;;;12507319;28;20388;-85
2022/10/31 07:43:21;;;;;;;;;;;13.10;99.90;;;;;;12514038;28;20346;-86
2022/10/31 07:49:25;;;;;;;;;;;12.70;99.90;;;;;;12525991;28;19925;-86
2022/10/31 07:55:27;;;;;;;;;;;13.20;99.90;;;;;;12530596;28;19936;-86
2022/10/31 08:01:29;;;;;;;;;;;13.30;99.90;;;;;;12523801;28;20411;-86
2022/10/31 08:07:35;;;;;;;;;;;13.20;99.90;;;;;;12526749;28;19931;-86
2022/10/31 08:13:42;;;;;;;;;;;13.30;99.90;;;;;;12527080;28;19939;-86
2022/10/31 08:19:44;;;;;;;;;;;13.40;99.90;;;;;;12529940;28;19939;-86
2022/10/31 08:25:47;;;;;;;;;;;13.50;99.90;;;;;;12521802;28;20023;-86
2022/10/31 08:31:49;;;;;;;;;;;13.60;99.90;;;;;;12519693;28;19935;-86
2022/10/31 08:37:57;;;;;;;;;;;13.80;99.90;;;;;;12519264;28;19925;-86
2022/10/31 08:44:01;;;;;;;;;;;13.90;99.90;;;;;;12526673;28;19936;-86
2022/10/31 08:50:03;;;;;;;;;;;13.90;99.90;;;;;;12510564;28;20144;-86
2022/10/31 08:56:07;;;;;;;;;;;13.90;99.90;;;;;;12515897;28;20208;-86
2022/10/31 09:02:08;;;;;;;;;;;13.90;99.90;;;;;;12517870;28;19971;-86
2022/10/31 09:08:11;;;;;;;;;;;13.90;99.90;;;;;;12517274;28;19960;-86
2022/10/31 09:14:17;;;;;;;;;;;13.90;99.90;;;;;;12511250;28;19925;-86
2022/10/31 09:20:19;;;;;;;;;;;14.00;99.90;;;;;;12507481;28;19983;-86
2022/10/31 09:26:21;;;;;;;;;;;14.10;99.90;;;;;;12514146;28;19932;-86
2022/10/31 09:32:22;;;;;;;;;;;14.20;99.90;;;;;;12502053;28;19936;-86
2022/10/31 09:38:24;;;;;;;;;;;14.40;99.90;;;;;;12509349;28;19947;-86
2022/10/31 09:44:30;;;;;;;;;;;14.50;99.90;;;;;;12513049;28;19929;-86
2022/10/31 09:50:44;;;;;;;;;;;14.60;99.90;;;;;;12531012;28;19928;-86
2022/10/31 09:56:46;;;;;;;;;;;14.70;99.90;;;;;;12530616;28;19926;-86
2022/10/31 10:02:53;;;;;;;;;;;14.80;99.90;;;;;;12537849;28;19925;-86
2022/10/31 10:08:55;;;;;;;;;;;14.80;99.90;;;;;;12531661;28;20399;-86
2022/10/31 10:15:13;;;;;;;;;;;14.80;99.90;;;;;;12530484;28;19929;-86
2022/10/31 10:21:17;;;;;;;;;;;15.00;99.90;;;;;;12540535;28;19924;-86
2022/10/31 10:27:19;;;;;;;;;;;15.30;99.90;;;;;;12532178;28;19929;-86
2022/10/31 10:33:30;;;;;;;;;;;15.40;99.90;;;;;;12524773;28;20069;-85
2022/10/31 10:39:39;;;;;;;;;;;15.50;99.90;;;;;;12525538;28;19940;-86
2022/10/31 10:52:07;;;;;;;;;;;15.70;99.90;;;;;;12516188;28;20312;-86
2022/10/31 10:58:29;;;;;;;;;;;15.80;99.90;;;;;;12509688;28;19976;-86
2022/10/31 11:04:32;;;;;;;;;;;15.90;99.90;;;;;;12515048;28;19959;-86
2022/10/31 11:10:34;;;;;;;;;;;16.10;99.90;;;;;;12495427;28;20020;-86
2022/10/31 11:16:38;;;;;;;;;;;16.20;99.90;;;;;;12516445;28;19929;-87
2022/10/31 11:22:43;;;;;;;;;;;16.30;99.90;;;;;;12511904;28;19936;-87
2022/10/31 11:28:55;;;;;;;;;;;16.40;99.90;;;;;;12507180;28;19933;-87
2022/10/31 11:34:59;;;;;;;;;;;16.40;99.90;;;;;;12515209;28;19936;-87
2022/10/31 11:41:06;;;;;;;;;;;16.80;99.90;;;;;;12513154;28;19928;-87
2022/10/31 11:47:11;;;;;;;;;;;16.90;99.90;;;;;;12518397;28;19925;-87
2022/10/31 11:53:15;;;;;;;;;;;17.10;99.90;;;;;;12524897;28;19925;-87
2022/10/31 11:59:26;;;;;;;;;;;17.00;99.90;;;;;;12529321;28;19932;-87
2022/10/31 12:05:32;;;;;;;;;;;16.90;99.90;;;;;;12530771;28;20410;-87
2022/10/31 12:11:37;;;;;;;;;;;16.70;99.90;;;;;;12524625;28;19925;-87
2022/10/31 12:17:44;;;;;;;;;;;16.60;99.90;;;;;;12516905;28;19925;-87
2022/10/31 12:23:54;;;;;;;;;;;16.50;99.90;;;;;;12532259;28;20042;-87
2022/10/31 12:30:01;;;;;;;;;;;16.40;99.90;;;;;;12527736;28;19936;-87
2022/10/31 12:36:29;;;;;;;;;;;16.30;99.90;;;;;;12532057;28;20356;-87
2022/10/31 12:42:54;;;;;;;;;;;16.20;99.90;;;;;;12535133;28;19933;-87
2022/10/31 12:49:09;;;;;;;;;;;16.30;99.90;;;;;;12531367;28;19936;-87
2022/10/31 12:55:17;;;;;;;;;;;16.30;99.90;;;;;;12541118;28;19924;-87
2022/10/31 13:01:23;;;;;;;;;;;16.40;99.90;;;;;;12514798;28;19925;-87
2022/10/31 13:07:41;;;;;;;;;;;16.30;99.90;;;;;;12523918;28;20303;-88
2022/10/31 13:13:45;;;;;;;;;;;16.40;99.90;;;;;;12504855;28;20423;-87
2022/10/31 13:19:47;;;;;;;;;;;16.40;99.90;;;;;;12511932;28;19932;-87
2022/10/31 13:25:51;;;;;;;;;;;16.60;99.90;;;;;;12517947;28;19960;-87
2022/10/31 13:31:53;;;;;;;;;;;16.30;99.90;;;;;;12516357;28;19929;-87
2022/10/31 13:38:01;;;;;;;;;;;16.40;99.90;;;;;;12522481;28;19932;-87
2022/10/31 13:44:08;;;;;;;;;;;16.40;99.90;;;;;;12509267;28;19935;-87
2022/10/31 13:50:21;;;;;;;;;;;16.30;99.90;;;;;;12546439;28;19936;-87
2022/10/31 13:56:30;;;;;;;;;;;16.30;99.90;;;;;;12529538;28;19925;-87
2022/10/31 14:02:33;;;;;;;;;;;16.30;99.90;;;;;;12529225;28;19937;-87
2022/10/31 14:08:37;;;;;;;;;;;16.20;99.90;;;;;;12534701;28;19932;-87
2022/10/31 14:14:42;;;;;;;;;;;16.40;99.90;;;;;;12537925;28;19940;-87
2022/10/31 14:20:44;;;;;;;;;;;16.30;99.90;;;;;;12529430;28;19935;-87
2022/10/31 14:26:51;;;;;;;;;;;16.40;99.90;;;;;;12530056;28;19924;-87
2022/10/31 14:32:58;;;;;;;;;;;16.30;99.90;;;;;;12532722;28;19940;-87
2022/10/31 14:39:21;;;;;;;;;;;16.20;99.90;;;;;;12519558;28;19935;-87
2022/10/31 14:45:38;;;;;;;;;;;16.20;99.90;;;;;;12531971;28;19940;-87
2022/10/31 14:51:44;;;;;;;;;;;16.10;99.90;;;;;;12530629;28;19933;-87
2022/10/31 14:58:06;;;;;;;;;;;16.00;99.90;;;;;;12529774;28;19924;-87
2022/10/31 15:04:24;;;;;;;;;;;15.90;99.90;;;;;;12535198;28;19924;-87
2022/10/31 15:10:29;;;;;;;;;;;15.90;99.90;;;;;;12546073;28;21188;-87
2022/10/31 15:16:35;;;;;;;;;;;15.90;99.90;;;;;;12529033;28;19925;-87
2022/10/31 15:22:36;;;;;;;;;;;15.80;99.90;;;;;;12527000;28;19924;-87
2022/10/31 15:28:38;;;;;;;;;;;15.80;99.90;;;;;;12518895;28;19936;-87
2022/10/31 15:34:41;;;;;;;;;;;15.70;99.90;;;;;;12524124;28;19932;-87
2022/10/31 15:40:50;;;;;;;;;;;15.70;99.90;;;;;;12526926;28;20288;-87
2022/10/31 15:47:00;;;;;;;;;;;15.70;99.90;;;;;;12529792;28;19924;-87
2022/10/31 15:53:02;;;;;;;;;;;15.70;99.90;;;;;;12524487;28;20292;-87
2022/10/31 15:59:05;;;;;;;;;;;15.80;99.90;;;;;;12524375;28;20296;-87
2022/10/31 16:05:18;;;;;;;;;;;15.70;99.90;;;;;;12539523;28;19924;-87
2022/10/31 16:11:20;;;;;;;;;;;15.70;99.90;;;;;;12525982;28;19929;-87
2022/10/31 16:17:24;;;;;;;;;;;15.70;99.90;;;;;;12530658;28;19925;-87
2022/10/31 16:23:26;;;;;;;;;;;15.70;99.90;;;;;;12525176;28;19947;-86
2022/10/31 16:29:32;;;;;;;;;;;15.70;99.90;;;;;;12529987;28;20581;-87
2022/10/31 16:35:35;;;;;;;;;;;15.60;99.90;;;;;;12520079;28;19932;-86
2022/10/31 16:41:44;;;;;;;;;;;15.60;99.90;;;;;;12518767;28;20014;-86
2022/10/31 16:47:46;;;;;;;;;;;15.50;99.90;;;;;;12520199;28;20367;-87
2022/10/31 16:53:51;;;;;;;;;;;15.40;99.90;;;;;;12537053;28;19924;-86
2022/10/31 16:59:56;;;;;;;;;;;15.40;99.90;;;;;;12534354;28;19925;-87
2022/10/31 17:05:57;;;;;;;;;;;15.40;99.90;;;;;;12538813;28;19932;-86
2022/10/31 17:11:59;;;;;;;;;;;15.40;99.90;;;;;;12590465;28;20286;-87
2022/10/31 17:18:01;;;;;;;;;;;15.30;99.90;;;;;;12578431;28;19921;-86
2022/10/31 17:24:03;;;;;;;;;;;15.30;99.90;;;;;;12593814;28;19974;-87
2022/10/31 17:30:05;;;;;;;;;;;15.30;99.90;;;;;;12591004;28;19917;-87
2022/10/31 17:36:07;;;;;;;;;;;15.30;99.90;;;;;;12554508;28;19936;-87
2022/10/31 17:42:08;;;;;;;;;;;15.30;99.90;;;;;;12536690;28;19924;-86
2022/10/31 17:48:11;;;;;;;;;;;15.30;99.90;;;;;;12535595;28;19929;-87
2022/10/31 17:54:17;;;;;;;;;;;15.20;99.90;;;;;;12533927;28;19924;-87
2022/10/31 18:00:23;;;;;;;;;;;15.10;99.90;;;;;;12533385;28;19932;-87
2022/10/31 18:06:24;;;;;;;;;;;15.10;99.90;;;;;;12534013;28;19925;-86
2022/10/31 18:12:27;;;;;;;;;;;15.10;99.90;;;;;;12537009;28;19932;-86
2022/10/31 18:18:29;;;;;;;;;;;15.20;99.90;;;;;;12528205;28;19929;-86
2022/10/31 18:24:31;;;;;;;;;;;15.10;99.90;;;;;;12530009;28;19936;-86
2022/10/31 18:30:33;;;;;;;;;;;15.30;99.90;;;;;;12528806;28;19929;-86
2022/10/31 18:36:37;;;;;;;;;;;15.40;99.90;;;;;;12528310;28;19928;-86
2022/10/31 18:42:39;;;;;;;;;;;15.60;99.90;;;;;;12520442;28;19926;-86
2022/10/31 18:48:41;;;;;;;;;;;15.70;99.90;;;;;;12547761;28;19933;-86
2022/10/31 18:54:43;;;;;;;;;;;15.70;99.90;;;;;;12536679;28;19929;-87
2022/10/31 19:00:45;;;;;;;;;;;15.50;99.90;;;;;;12529441;28;20322;-87
2022/10/31 19:06:47;;;;;;;;;;;15.30;99.90;;;;;;12532704;28;19924;-86
2022/10/31 19:12:48;;;;;;;;;;;15.00;99.90;;;;;;12523617;28;19928;-87
2022/10/31 19:18:52;;;;;;;;;;;15.00;99.90;;;;;;12522559;28;19924;-87
2022/10/31 19:24:53;;;;;;;;;;;14.80;99.90;;;;;;12526650;28;19925;-86
2022/10/31 19:30:55;;;;;;;;;;;14.70;99.90;;;;;;12524072;28;19929;-86
2022/10/31 19:36:57;;;;;;;;;;;14.30;99.90;;;;;;12529831;28;19978;-86
2022/10/31 19:42:59;;;;;;;;;;;14.20;99.90;;;;;;12521333;28;19925;-86
2022/10/31 19:49:00;;;;;;;;;;;14.30;99.90;;;;;;12531884;28;19936;-86
2022/10/31 19:55:02;;;;;;;;;;;14.20;99.90;;;;;;12533672;28;19929;-86
2022/10/31 20:01:08;;;;;;;;;;;14.10;99.90;;;;;;12534360;28;20300;-86
2022/10/31 20:07:09;;;;;;;;;;;14.20;99.90;;;;;;12515553;28;20034;-86
2022/10/31 20:13:13;;;;;;;;;;;14.20;99.90;;;;;;12523855;28;19929;-86
2022/10/31 20:19:15;;;;;;;;;;;14.20;99.90;;;;;;12540896;28;19925;-86
2022/10/31 20:25:17;;;;;;;;;;;14.30;99.90;;;;;;12518304;28;20019;-86
2022/10/31 20:31:20;;;;;;;;;;;14.30;99.90;;;;;;12525678;28;19932;-86
2022/10/31 20:37:22;;;;;;;;;;;14.20;99.90;;;;;;12519998;28;20638;-86
2022/10/31 20:43:25;;;;;;;;;;;14.10;99.90;;;;;;12517684;28;20297;-86
2022/10/31 20:49:28;;;;;;;;;;;14.20;99.90;;;;;;12530673;28;19928;-86
2022/10/31 20:55:30;;;;;;;;;;;14.10;99.90;;;;;;12534818;28;19929;-86
2022/10/31 21:01:34;;;;;;;;;;;14.70;99.90;;;;;;12533883;28;19932;-85
2022/10/31 21:07:36;;;;;;;;;;;15.20;99.90;;;;;;12532435;28;19925;-85
2022/10/31 21:13:39;;;;;;;;;;;15.50;99.90;;;;;;12534785;28;19925;-85
2022/10/31 21:19:41;;;;;;;;;;;15.50;99.90;;;;;;12534089;28;19929;-85
2022/10/31 21:25:43;;;;;;;;;;;15.70;99.90;;;;;;12532886;28;20014;-86
2022/10/31 21:31:45;;;;;;;;;;;15.90;99.90;;;;;;12537413;28;20663;-86
2022/10/31 21:37:47;;;;;;;;;;;15.80;99.90;;;;;;12533897;28;19924;-85
2022/10/31 21:43:49;;;;;;;;;;;15.80;99.90;;;;;;12531986;28;19925;-85
2022/10/31 21:49:51;;;;;;;;;;;15.90;99.90;;;;;;12522240;28;19928;-85
2022/10/31 21:55:53;;;;;;;;;;;16.00;99.90;;;;;;12519108;28;19932;-84
2022/10/31 22:01:59;;;;;;;;;;;15.90;99.90;;;;;;12529307;28;19925;-85
2022/10/31 22:08:01;;;;;;;;;;;15.90;99.90;;;;;;12526878;28;19979;-85
2022/10/31 22:14:04;;;;;;;;;;;15.70;99.90;;;;;;12537368;28;19928;-84
2022/10/31 22:20:06;;;;;;;;;;;15.70;99.90;;;;;;12540989;28;19933;-84
2022/10/31 22:26:12;;;;;;;;;;;15.60;99.90;;;;;;12531910;28;19924;-85
2022/10/31 22:32:14;;;;;;;;;;;15.70;99.90;;;;;;12528247;28;19925;-84
2022/10/31 22:38:16;;;;;;;;;;;15.70;99.90;;;;;;12527055;28;19925;-84
2022/10/31 22:44:18;;;;;;;;;;;15.50;99.90;;;;;;12519834;28;19932;-84
2022/10/31 22:50:19;;;;;;;;;;;15.40;99.90;;;;;;12531440;28;19933;-85
2022/10/31 22:56:22;;;;;;;;;;;15.30;99.90;;;;;;12531756;28;19936;-84
2022/10/31 23:02:23;;;;;;;;;;;15.20;99.90;;;;;;12528538;28;19925;-85
2022/10/31 23:08:25;;;;;;;;;;;15.20;99.90;;;;;;12524946;28;19948;-85
2022/10/31 23:14:27;;;;;;;;;;;15.20;99.90;;;;;;12529344;28;19925;-84
2022/10/31 23:20:29;;;;;;;;;;;15.20;99.90;;;;;;12523574;28;19925;-84
2022/10/31 23:32:51;;;;;;;;;;;15.20;99.90;;;;;;12527841;28;19928;-83
2022/10/31 23:38:53;;;;;;;;;;;15.20;99.90;;;;;;12527573;28;19935;-84
2022/10/31 23:44:55;;;;;;;;;;;15.30;99.90;;;;;;12528377;28;19947;-84
2022/10/31 23:50:56;;;;;;;;;;;15.30;99.90;;;;;;12525064;28;19935;-84
2022/10/31 23:56:58;;;;;;;;;;;15.40;99.90;;;;;;12522862;28;19926;-84
